METAR Data
IDs: Format: Raw Decoded Include TAF

Data at: 0433 UTC 26 Sep 2018

K14Y 260415Z AUTO 00000KT 10SM CLR 05/03 A3002 RMK AO2
K14Y 260355Z AUTO 31004KT 10SM SCT100 05/03 A3002 RMK AO2
K14Y 260336Z AUTO 32006KT 10SM CLR 06/04 A3001 RMK AO2
K14Y 260335Z AUTO 33006KT 10SM CLR 06/04 A3001 RMK AO2
K14Y 260315Z AUTO 30006KT 10SM CLR 06/03 A3001 RMK AO2
K14Y 260255Z AUTO 26005KT 10SM CLR 06/04 A3000 RMK AO2
K14Y 260236Z AUTO 25004KT 10SM CLR 06/04 A3000 RMK AO2
K14Y 260235Z AUTO 25004KT 10SM CLR 06/04 A3000 RMK AO2
K14Y 260215Z AUTO 24003KT 10SM CLR 04/03 A3000 RMK AO2
K14Y 260155Z AUTO 23003KT 10SM CLR 05/04 A3000 RMK AO2
K14Y 260136Z AUTO 24003KT 10SM CLR 05/04 A3000 RMK AO2
K14Y 260135Z AUTO 24003KT 10SM CLR 05/04 A3000 RMK AO2
K14Y 260115Z AUTO 00000KT 10SM CLR 05/03 A2999 RMK AO2
K14Y 260056Z AUTO 19003KT 10SM CLR 05/04 A2998 RMK AO2
K14Y 260055Z AUTO 19003KT 10SM CLR 05/04 A2998 RMK AO2
K14Y 260036Z AUTO 00000KT 10SM CLR 07/04 A2998 RMK AO2
K14Y 260035Z AUTO 00000KT 10SM CLR 07/04 A2998 RMK AO2
K14Y 260016Z AUTO 28003KT 7SM CLR 08/04 A2997 RMK AO2
K14Y 260015Z AUTO 28003KT 7SM CLR 08/04 A2997 RMK AO2
K14Y 252355Z AUTO 29005KT 10SM SCT044 09/05 A2997 RMK AO2
K14Y 252335Z AUTO 29006KT 10SM SCT044 10/04 A2998 RMK AO2
K14Y 252316Z AUTO 29008G15KT 10SM SCT029 SCT037 BKN044 10/04 A2997 RMK AO2
K14Y 252315Z AUTO 29008G15KT 10SM SCT029 SCT037 BKN044 10/04 A2997 RMK AO2
K14Y 252255Z AUTO 28011G17KT 10SM SCT029 OVC039 11/05 A2997 RMK AO2
K14Y 252236Z AUTO 28008KT 10SM SCT033 OVC038 10/05 A2996 RMK AO2
K14Y 252235Z AUTO 28008KT 10SM SCT031 OVC038 10/05 A2996 RMK AO2
K14Y 252216Z AUTO 28008G15KT 10SM SCT027 OVC033 10/05 A2996 RMK AO2
K14Y 252215Z AUTO 28009G15KT 10SM BKN027 OVC033 10/05 A2996 RMK AO2
K14Y 252156Z AUTO 28007G14KT 10SM OVC025 11/05 A2996 RMK AO2
K14Y 252155Z AUTO 27007G14KT 10SM BKN025 OVC030 11/05 A2996 RMK AO2
K14Y 252136Z AUTO 28007KT 10SM BKN023 10/06 A2996 RMK AO2
K14Y 252135Z AUTO 27008KT 10SM BKN023 10/06 A2996 RMK AO2
K14Y 252116Z AUTO 29005KT 10SM CLR 10/07 A2996 RMK AO2
K14Y 252115Z AUTO 28006KT 10SM CLR 10/07 A2996 RMK AO2
K14Y 252055Z AUTO 29009KT 10SM SCT065 SCT075 SCT100 09/07 A2996 RMK AO2
K14Y 252035Z AUTO 29006KT 10SM -RA SCT034 SCT041 OVC060 08/07 A2997 RMK AO2
K14Y 252016Z AUTO 29006KT 10SM RA SCT034 BKN050 OVC060 08/06 A2998 RMK AO2
K14Y 252015Z AUTO 29005KT 10SM RA SCT032 SCT043 OVC050 08/07 A2998 RMK AO2
K14Y 251956Z AUTO 30011G15KT 7SM -RA SCT013 BKN032 OVC050 08/06 A2998 RMK AO2 LTG DSNT W
K14Y 251955Z AUTO 29010G15KT 7SM -RA SCT013 BKN032 OVC050 08/06 A2998 RMK AO2 LTG DSNT W
K14Y 251935Z AUTO 29008KT 10SM -RA SCT017 SCT025 OVC050 08/07 A2998 RMK AO2
K14Y 251915Z AUTO 31010G15KT 10SM RA SCT021 BKN027 OVC031 08/06 A2998 RMK AO2
K14Y 251855Z AUTO 31007KT 10SM SCT021 BKN032 OVC044 10/06 A2998 RMK AO2
K14Y 251836Z AUTO 30006KT 10SM SCT018 SCT022 OVC034 10/06 A2998 RMK AO2
K14Y 251835Z AUTO 30006KT 10SM SCT018 SCT028 OVC034 10/06 A2998 RMK AO2
K14Y 251815Z AUTO 29010KT 10SM SCT018 SCT026 OVC034 10/06 A2998 RMK AO2
K14Y 251755Z AUTO 29005KT 10SM SCT020 BKN028 OVC060 10/06 A2998 RMK AO2
K14Y 251736Z AUTO 30005KT 10SM SCT016 SCT027 OVC060 10/06 A2999 RMK AO2
K14Y 251735Z AUTO 31005KT 10SM SCT016 SCT027 OVC060 10/06 A2999 RMK AO2
K14Y 251716Z AUTO 29005KT 10SM SCT016 SCT024 OVC070 09/06 A2999 RMK AO2
K14Y 251715Z AUTO 29005KT 10SM SCT019 SCT026 OVC070 09/06 A2999 RMK AO2
K14Y 251656Z AUTO 27004KT 10SM SCT022 BKN030 OVC085 09/06 A3000 RMK AO2
K14Y 251655Z AUTO 26003KT 10SM SCT022 BKN030 OVC085 09/06 A3000 RMK AO2
K14Y 251635Z AUTO 28005KT 10SM BKN024 OVC028 08/06 A3000 RMK AO2
K14Y 251615Z AUTO 27004KT 10SM BKN024 OVC037 08/06 A3000 RMK AO2
K14Y 251555Z AUTO 31004KT 10SM SCT028 OVC035 08/06 A2998 RMK AO2
K14Y 251536Z AUTO 00000KT 10SM OVC035 08/06 A2998 RMK AO2
K14Y 251535Z AUTO 00000KT 10SM OVC035 08/06 A2998 RMK AO2
K14Y 251515Z AUTO 32003KT 10SM BKN031 OVC037 08/06 A2998 RMK AO2
K14Y 251456Z AUTO 31005KT 10SM SCT031 SCT039 OVC100 07/06 A2998 RMK AO2
K14Y 251455Z AUTO 31004KT 10SM SCT031 SCT039 OVC100 07/06 A2998 RMK AO2
K14Y 251436Z AUTO 30003KT 10SM OVC100 07/06 A2998 RMK AO2
K14Y 251435Z AUTO 30003KT 10SM OVC100 07/06 A2998 RMK AO2
K14Y 251415Z AUTO 29003KT 10SM OVC110 07/06 A2998 RMK AO2
K14Y 251355Z AUTO 31003KT 10SM OVC110 07/06 A2997 RMK AO2
K14Y 251335Z AUTO 30003KT 10SM OVC110 07/06 A2997 RMK AO2
K14Y 251316Z AUTO 31004KT 10SM BKN110 07/05 A2997 RMK AO2
K14Y 251315Z AUTO 31004KT 10SM BKN110 07/05 A2997 RMK AO2
K14Y 251255Z AUTO 00000KT 7SM SCT110 06/05 A2996 RMK AO2
K14Y 251235Z AUTO 03003KT 10SM SCT120 06/05 A2994 RMK AO2
K14Y 251216Z AUTO 01003KT 10SM CLR 06/05 A2994 RMK AO2
K14Y 251215Z AUTO 01003KT 10SM CLR 06/05 A2995 RMK AO2
K14Y 251155Z AUTO 01003KT 10SM SCT120 06/05 A2994 RMK AO2
K14Y 251136Z AUTO 36003KT 10SM SCT120 06/05 A2995 RMK AO2
K14Y 251135Z AUTO 36003KT 10SM SCT120 06/05 A2995 RMK AO2
K14Y 251115Z AUTO 35003KT 10SM CLR 07/05 A2995 RMK AO2
K14Y 251055Z AUTO 00000KT 10SM SCT018 07/05 A2996 RMK AO2
K14Y 251036Z AUTO 36005KT 10SM OVC018 07/05 A2995 RMK AO2
K14Y 251035Z AUTO 36005KT 10SM OVC018 07/05 A2995 RMK AO2
K14Y 251015Z AUTO 35005KT 10SM OVC018 07/05 A2995 RMK AO2
K14Y 250955Z AUTO 34006KT 10SM OVC016 07/05 A2996 RMK AO2
K14Y 250936Z AUTO 33008KT 10SM OVC018 07/06 A2995 RMK AO2
K14Y 250935Z AUTO 33008KT 10SM OVC018 07/06 A2995 RMK AO2
K14Y 250916Z AUTO 34008KT 10SM BKN012 OVC020 07/06 A2995 RMK AO2
K14Y 250915Z AUTO 33008KT 10SM BKN012 OVC020 07/06 A2995 RMK AO2
K14Y 250855Z AUTO 35005KT 10SM OVC012 08/06 A2995 RMK AO2
K14Y 250835Z AUTO 34009KT 10SM OVC014 08/06 A2995 RMK AO2
K14Y 250815Z AUTO 33008KT 10SM OVC014 07/06 A2994 RMK AO2
K14Y 250755Z AUTO 34008G15KT 10SM OVC010 07/06 A2993 RMK AO2
K14Y 250736Z AUTO 35006KT 10SM OVC012 08/06 A2993 RMK AO2
K14Y 250735Z AUTO 34005KT 10SM OVC012 08/06 A2993 RMK AO2
K14Y 250715Z AUTO 34007KT 10SM SCT009 OVC016 08/06 A2993 RMK AO2
K14Y 250655Z AUTO 33006KT 10SM SCT010 OVC018 08/07 A2993 RMK AO2
K14Y 250636Z AUTO 34006KT 10SM OVC020 08/07 A2993 RMK AO2
K14Y 250616Z AUTO 33008KT 10SM OVC020 08/07 A2993 RMK AO2
K14Y 250615Z AUTO 33009KT 10SM OVC020 08/07 A2993 RMK AO2
K14Y 250556Z AUTO 34007KT 10SM OVC020 08/07 A2992 RMK AO2
K14Y 250555Z AUTO 34009KT 10SM SCT009 OVC020 08/07 A2992 RMK AO2
K14Y 250536Z AUTO 34007KT 10SM BKN009 OVC022 08/07 A2992 RMK AO2
K14Y 250535Z AUTO 34007KT 10SM BKN009 OVC022 08/07 A2992 RMK AO2
K14Y 250515Z AUTO 34006KT 10SM OVC007 08/07 A2991 RMK AO2
K14Y 250455Z AUTO 34008KT 10SM OVC007 08/07 A2992 RMK AO2
K14Y 250436Z AUTO 33006KT 10SM OVC007 08/07 A2993 RMK AO2
K14Y 250435Z AUTO 33008KT 10SM OVC007 08/07 A2993 RMK AO2
K14Y 250415Z AUTO 32004KT 10SM OVC007 08/08 A2993 RMK AO2
K14Y 250355Z AUTO 32006KT 10SM OVC007 08/08 A2992 RMK AO2
K14Y 250336Z AUTO 33007KT 10SM OVC007 09/08 A2992 RMK AO2
K14Y 250335Z AUTO 33008KT 10SM OVC007 09/08 A2992 RMK AO2
K14Y 250315Z AUTO 32007KT 10SM OVC005 09/08 A2992 RMK AO2
K14Y 250255Z AUTO 32007KT 10SM OVC005 09/08 A2991 RMK AO2
K14Y 250236Z AUTO 31005KT 10SM OVC007 09/08 A2990 RMK AO2
K14Y 250235Z AUTO 32005KT 10SM OVC007 09/08 A2990 RMK AO2
K14Y 250215Z AUTO 32006KT 10SM OVC005 09/08 A2990 RMK AO2
K14Y 250155Z AUTO 32010KT 10SM OVC005 09/08 A2990 RMK AO2
K14Y 250136Z AUTO 33010KT 10SM OVC005 10/09 A2988 RMK AO2
K14Y 250135Z AUTO 34009KT 10SM OVC005 10/09 A2989 RMK AO2
K14Y 250115Z AUTO 31008G15KT 10SM OVC005 10/10 A2989 RMK AO2
K14Y 250055Z AUTO 32007KT 10SM OVC005 11/10 A2987 RMK AO2
K14Y 250035Z AUTO 32007KT 10SM OVC005 11/10 A2986 RMK AO2
K14Y 250016Z AUTO 31008KT 10SM OVC005 11/11 A2986 RMK AO2
K14Y 250015Z AUTO 31009KT 10SM OVC005 11/11 A2986 RMK AO2
K14Y 242355Z AUTO 31009KT 10SM OVC005 12/11 A2984 RMK AO2 P0001
K14Y 242335Z AUTO 30006KT 10SM RA SCT005 BKN065 OVC085 12/12 A2984 RMK AO2 P0001
K14Y 242316Z AUTO 00000KT 10SM RA SCT060 SCT075 OVC085 12/11 A2984 RMK AO2 P0001
K14Y 242315Z AUTO 00000KT 10SM RA SCT060 SCT075 OVC085 12/11 A2983 RMK AO2 P0001
K14Y 242255Z AUTO 00000KT 10SM -RA SCT005 BKN065 OVC080 12/11 A2982 RMK AO2 P0004
K14Y 242236Z AUTO 00000KT 7SM -RA BKN005 BKN033 OVC065 12/11 A2983 RMK AO2 P0004
K14Y 242216Z AUTO 00000KT 7SM RA OVC065 12/11 A2985 RMK AO2 P0001
K14Y 242215Z AUTO 00000KT 7SM RA OVC065 12/11 A2985 RMK AO2
K14Y 242155Z AUTO 31005KT 10SM -DZ SCT040 SCT046 OVC055 12/11 A2983 RMK AO2 P0002
K14Y 242135Z AUTO 28004KT 7SM -RA SCT005 BKN040 OVC046 12/11 A2984 RMK AO2 P0002
K14Y 242116Z AUTO 31005KT 4SM +DZ BKN005 BKN010 OVC014 12/11 A2983 RMK AO2 P0001
K14Y 242115Z AUTO 31006KT 4SM +DZ BKN005 BKN010 OVC047 12/11 A2982 RMK AO2 P0001
K14Y 242055Z AUTO 29005KT 5SM RA SCT005 BKN028 OVC047 12/12 A2983 RMK AO2 P0004
K14Y 242036Z AUTO 29005KT 4SM RA SCT019 BKN031 OVC047 12/12 A2982 RMK AO2 P0004
K14Y 242035Z AUTO 30005KT 4SM RA SCT009 BKN031 OVC047 12/12 A2982 RMK AO2 P0003
K14Y 242015Z AUTO 29007KT 3SM -RA BKN008 BKN013 OVC020 12/12 A2984 RMK AO2
K14Y 241955Z AUTO 29008KT 7SM DZ SCT010 OVC018 13/12 A2983 RMK AO2
K14Y 241936Z AUTO 28007G16KT 10SM OVC020 15/12 A2982 RMK AO2
K14Y 241935Z AUTO 28009G16KT 10SM OVC020 15/12 A2982 RMK AO2
K14Y 241915Z AUTO 24006KT 10SM OVC022 17/13 A2982 RMK AO2
K14Y 241855Z AUTO 22008KT 10SM SCT024 OVC038 17/13 A2981 RMK AO2
K14Y 241836Z AUTO 22011G16KT 10SM OVC036 17/13 A2981 RMK AO2
K14Y 241835Z AUTO 22010G15KT 10SM SCT022 OVC036 17/13 A2981 RMK AO2
K14Y 241816Z AUTO 18007KT 10SM BKN022 OVC034 17/13 A2981 RMK AO2
K14Y 241815Z AUTO 18008KT 10SM BKN022 OVC034 17/13 A2981 RMK AO2
K14Y 241755Z AUTO 20008KT 10SM OVC022 17/13 A2981 RMK AO2
K14Y 241735Z AUTO 20006KT 10SM OVC022 17/13 A2981 RMK AO2
K14Y 241716Z AUTO 21010G15KT 10SM OVC022 17/12 A2983 RMK AO2
K14Y 241715Z AUTO 21008G15KT 10SM OVC022 17/12 A2983 RMK AO2
K14Y 241655Z AUTO 20009G14KT 10SM OVC022 18/13 A2981 RMK AO2
K14Y 241635Z AUTO 21007KT 10SM OVC022 16/12 A2981 RMK AO2